createdAt,value
2022-12-14T00:03:05.837Z,96682.88
2022-12-14T00:08:09.950Z,96754.47
2022-12-14T00:13:17.967Z,96793.44
2022-12-14T00:18:27.100Z,96795.91
2022-12-14T00:23:43.162Z,96670.00
2022-12-14T00:28:49.144Z,96783.22
2022-12-14T00:33:53.698Z,96736.03
2022-12-14T00:38:57.351Z,96723.00
2022-12-14T00:44:10.733Z,96704.78
2022-12-14T00:49:15.008Z,96761.28
2022-12-14T00:54:18.878Z,96767.56
2022-12-14T00:59:27.124Z,96521.41
2022-12-14T01:04:31.619Z,96580.66
2022-12-14T01:09:35.328Z,96758.50
2022-12-14T01:14:38.910Z,96626.78
2022-12-14T01:19:42.271Z,96656.56
2022-12-14T01:24:46.160Z,96672.47
2022-12-14T01:29:49.752Z,96732.56
2022-12-14T01:34:53.245Z,96712.78
2022-12-14T01:39:56.952Z,96781.25
2022-12-14T01:45:00.542Z,96734.91
2022-12-14T01:50:11.719Z,96626.25
2022-12-14T01:55:23.630Z,96746.13
2022-12-14T02:00:27.099Z,96632.94
2022-12-14T02:05:36.509Z,96655.72
2022-12-14T02:10:39.998Z,96744.88
2022-12-14T02:15:44.424Z,96629.56
2022-12-14T02:21:00.136Z,96711.56
2022-12-14T02:26:33.978Z,96706.19
2022-12-14T02:32:04.500Z,96695.81
2022-12-14T02:37:34.971Z,96674.53
2022-12-14T02:42:51.675Z,96665.16
2022-12-14T02:48:02.669Z,96708.78
2022-12-14T02:53:30.439Z,96644.22
2022-12-14T02:58:40.714Z,96664.13
2022-12-14T03:03:43.892Z,96685.53
2022-12-14T03:08:47.987Z,96444.25
2022-12-14T03:13:59.108Z,96684.53
2022-12-14T03:19:08.794Z,96679.63
2022-12-14T03:24:20.028Z,96563.22
2022-12-14T03:29:30.507Z,96589.38
2022-12-14T03:34:41.063Z,96663.59
2022-12-14T03:39:45.403Z,96651.63
2022-12-14T03:45:16.094Z,96636.59
2022-12-14T03:50:22.292Z,96558.31
2022-12-14T03:55:38.526Z,96440.00
2022-12-14T04:01:18.783Z,96556.69
2022-12-14T04:06:24.904Z,96497.69
2022-12-14T04:11:52.748Z,96530.63
2022-12-14T04:17:16.931Z,96605.47
2022-12-14T04:22:25.218Z,96536.06
2022-12-14T04:27:35.502Z,96607.78
2022-12-14T04:32:40.092Z,96597.25
2022-12-14T04:37:48.772Z,96335.63
2022-12-14T04:43:04.133Z,96575.53
2022-12-14T04:48:32.761Z,96592.03
2022-12-14T04:53:41.959Z,96620.25
2022-12-14T04:58:44.843Z,96598.28
2022-12-14T05:04:01.055Z,96585.22
2022-12-14T05:09:33.038Z,96492.13
2022-12-14T05:14:41.495Z,96571.03
2022-12-14T05:19:49.280Z,96563.94
2022-12-14T05:24:52.983Z,96282.06
2022-12-14T05:29:55.810Z,96558.81
2022-12-14T05:34:58.577Z,96332.56
2022-12-14T05:40:01.260Z,96524.97
2022-12-14T05:45:05.002Z,96453.69
2022-12-14T05:50:08.735Z,96571.16
2022-12-14T05:55:11.368Z,96534.19
2022-12-14T06:00:14.830Z,96415.75
2022-12-14T06:05:17.651Z,96372.81
2022-12-14T06:10:28.901Z,96505.25
2022-12-14T06:15:34.132Z,96496.53
2022-12-14T06:20:36.938Z,96485.00
2022-12-14T06:25:39.635Z,96494.81
2022-12-14T06:30:51.606Z,96487.75
2022-12-14T06:35:54.216Z,96549.75
2022-12-14T06:40:57.395Z,96540.44
2022-12-14T06:46:00.040Z,96506.63
2022-12-14T06:51:07.233Z,96557.72
2022-12-14T06:56:16.082Z,96561.00
2022-12-14T07:01:21.706Z,96566.09
2022-12-14T07:06:26.231Z,96562.84
2022-12-14T07:11:30.820Z,96491.94
2022-12-14T07:16:35.251Z,96577.41
2022-12-14T07:21:37.879Z,96539.34
2022-12-14T07:26:40.507Z,96405.03
2022-12-14T07:31:43.377Z,96585.31
2022-12-14T07:36:46.026Z,96418.50
2022-12-14T07:41:51.272Z,96602.84
2022-12-14T07:46:54.451Z,96585.69
2022-12-14T07:51:57.224Z,96575.84
2022-12-14T07:57:00.110Z,96558.81
2022-12-14T08:02:02.922Z,96616.97
2022-12-14T08:07:05.991Z,96457.34
2022-12-14T08:12:08.628Z,96608.59
2022-12-14T08:17:11.312Z,96607.09
2022-12-14T08:22:14.111Z,96536.03
2022-12-14T08:27:18.391Z,96634.28
2022-12-14T08:32:20.988Z,96640.69
2022-12-14T08:37:23.635Z,96632.19
2022-12-14T08:42:26.337Z,96617.28
2022-12-14T08:47:28.966Z,96629.28
2022-12-14T08:52:36.520Z,96625.28
2022-12-14T08:57:39.138Z,96632.41
2022-12-14T09:02:41.982Z,96652.47
2022-12-14T09:07:44.743Z,96513.63
2022-12-14T09:12:47.352Z,96598.44
2022-12-14T09:17:51.684Z,96627.91
2022-12-14T09:22:54.280Z,96621.88
2022-12-14T09:27:57.654Z,96563.94
2022-12-14T09:33:01.128Z,96542.06
2022-12-14T09:38:04.195Z,96608.91
2022-12-14T09:43:10.342Z,96610.63
2022-12-14T09:48:23.160Z,96600.50
2022-12-14T09:53:26.910Z,96609.59
2022-12-14T09:58:31.495Z,96597.22
2022-12-14T10:03:43.899Z,96576.50
2022-12-14T10:08:55.057Z,96576.97
2022-12-14T10:14:03.443Z,96587.72
2022-12-14T10:19:21.099Z,96576.72
2022-12-14T10:24:45.093Z,96568.00
2022-12-14T10:29:55.474Z,96276.00
2022-12-14T10:34:59.519Z,96524.03
2022-12-14T10:40:17.587Z,96547.41
2022-12-14T10:45:46.685Z,96548.47
2022-12-14T10:51:03.794Z,96509.75
2022-12-14T10:56:14.727Z,96486.56
2022-12-14T11:01:19.353Z,96482.63
2022-12-14T11:06:22.121Z,96496.53
2022-12-14T11:11:26.758Z,96502.88
2022-12-14T11:16:41.790Z,96467.63
2022-12-14T11:21:45.393Z,96467.53
2022-12-14T11:26:55.647Z,96465.38
2022-12-14T11:31:59.251Z,96393.50
2022-12-14T11:37:12.572Z,96441.03
2022-12-14T11:42:19.730Z,96422.13
2022-12-14T11:47:27.375Z,96427.88
2022-12-14T11:52:38.952Z,96445.78
2022-12-14T11:57:52.525Z,96454.31
2022-12-14T12:02:58.072Z,96455.63
2022-12-14T12:08:03.563Z,96435.63
2022-12-14T12:13:07.979Z,96436.63
2022-12-14T12:18:30.237Z,96440.75
2022-12-14T12:23:41.918Z,96432.16
2022-12-14T12:28:53.846Z,96434.25
2022-12-14T12:34:02.923Z,96323.13
2022-12-14T12:39:19.928Z,96437.25
2022-12-14T12:44:28.195Z,96447.56
2022-12-14T12:49:30.862Z,96429.78
2022-12-14T12:54:59.062Z,96407.59
2022-12-14T13:00:02.287Z,96399.38
2022-12-14T13:05:45.789Z,96353.53
2022-12-14T13:16:27.243Z,96431.50
2022-12-14T13:21:34.073Z,96325.75
2022-12-14T13:27:15.474Z,96359.38
2022-12-14T13:32:42.311Z,96417.06
2022-12-14T13:38:33.513Z,96360.34
2022-12-14T13:44:37.220Z,96407.78
2022-12-14T13:50:26.319Z,96362.25
2022-12-14T13:55:35.806Z,96418.50
2022-12-14T14:00:56.825Z,96419.66
2022-12-14T14:06:30.344Z,96413.34
2022-12-14T14:11:37.839Z,96417.75
2022-12-14T14:17:02.610Z,96401.22
2022-12-14T14:22:22.961Z,96419.47
2022-12-14T14:27:35.275Z,96312.69
2022-12-14T14:32:42.092Z,96402.63
2022-12-14T14:37:56.281Z,96381.13
2022-12-14T14:43:38.402Z,96370.84
2022-12-14T14:48:57.627Z,96355.31
2022-12-14T14:59:58.540Z,96332.13
2022-12-14T15:10:44.896Z,96409.00
2022-12-14T15:15:54.241Z,96320.41
2022-12-14T15:21:06.943Z,96341.81
2022-12-14T15:26:19.699Z,96405.09
2022-12-14T15:31:32.776Z,96411.41
2022-12-14T15:36:38.835Z,96363.22
2022-12-14T15:41:41.522Z,96402.72
2022-12-14T15:46:44.315Z,96400.19
2022-12-14T15:51:47.855Z,96360.66
2022-12-14T15:56:57.632Z,96364.56
2022-12-14T16:02:31.450Z,96400.56
2022-12-14T16:07:39.337Z,96411.78
2022-12-14T16:12:49.201Z,96385.25
2022-12-14T16:17:59.310Z,96156.13
2022-12-14T16:23:06.806Z,96238.31
2022-12-14T16:28:37.645Z,96112.69
2022-12-14T16:33:43.666Z,96365.56
2022-12-14T16:38:57.628Z,96382.59
2022-12-14T16:44:06.940Z,96276.75
2022-12-14T16:49:23.048Z,96327.69
2022-12-14T16:54:34.467Z,96383.91
2022-12-14T16:59:44.313Z,96318.00
2022-12-14T17:04:49.138Z,96370.53
2022-12-14T17:09:54.749Z,96138.56
2022-12-14T17:14:59.365Z,96317.81
2022-12-14T17:20:09.147Z,96176.56
2022-12-14T17:25:22.382Z,96126.13
2022-12-14T17:30:36.013Z,96054.38
2022-12-14T17:35:54.019Z,96292.13
2022-12-14T17:40:58.542Z,96408.44
2022-12-14T17:46:04.627Z,96248.06
2022-12-14T17:51:08.440Z,96214.44
2022-12-14T17:56:12.444Z,96331.59
2022-12-14T18:01:23.573Z,96359.63
2022-12-14T18:06:27.184Z,96409.59
2022-12-14T18:11:30.658Z,96216.47
2022-12-14T18:16:35.837Z,96329.94
2022-12-14T18:21:40.014Z,96335.03
2022-12-14T18:26:43.858Z,96410.19
2022-12-14T18:31:49.740Z,96239.81
2022-12-14T18:36:53.364Z,96180.00
2022-12-14T18:41:56.519Z,96325.63
2022-12-14T18:47:20.521Z,96263.44
2022-12-14T18:52:26.208Z,96229.88
2022-12-14T18:57:29.159Z,96292.78
2022-12-14T19:02:33.077Z,96444.59
2022-12-14T19:07:36.883Z,96351.25
2022-12-14T19:12:40.953Z,96203.56
2022-12-14T19:17:44.298Z,96177.88
2022-12-14T19:22:58.220Z,96343.88
2022-12-14T19:38:32.126Z,96403.06
2022-12-14T19:43:36.723Z,96213.00
2022-12-14T19:48:41.539Z,96098.41
2022-12-14T19:53:47.495Z,96180.84
2022-12-14T19:58:51.591Z,96350.75
2022-12-14T20:03:56.846Z,96189.38
2022-12-14T20:09:02.805Z,96241.22
2022-12-14T20:14:08.163Z,96356.75
2022-12-14T20:19:14.724Z,96066.50
2022-12-14T20:24:26.017Z,96302.00
2022-12-14T20:29:40.590Z,96375.63
2022-12-14T20:34:45.253Z,96244.66
2022-12-14T20:39:49.504Z,96219.59
2022-12-14T20:44:54.187Z,96368.63
2022-12-14T20:49:58.706Z,96250.56
2022-12-14T20:55:03.710Z,96321.81
2022-12-14T21:00:07.728Z,96457.22
2022-12-14T21:05:11.202Z,96301.75
2022-12-14T21:10:14.926Z,96359.03
2022-12-14T21:15:18.837Z,96212.25
2022-12-14T21:20:22.344Z,96180.84
2022-12-14T21:25:25.532Z,96455.09
2022-12-14T21:30:28.195Z,96370.69
2022-12-14T21:35:30.845Z,96455.00
2022-12-14T21:41:12.696Z,96409.53
2022-12-14T21:46:16.657Z,96372.00
2022-12-14T21:51:19.980Z,96350.94
2022-12-14T21:56:41.307Z,96420.72
2022-12-14T22:01:44.569Z,96454.66
2022-12-14T22:06:47.469Z,96231.16
2022-12-14T22:11:50.662Z,96442.72
2022-12-14T22:16:53.435Z,96371.94
2022-12-14T22:21:56.569Z,96219.19
2022-12-14T22:27:03.082Z,96336.13
2022-12-14T22:32:06.916Z,96446.22
2022-12-14T22:37:10.008Z,96328.06
2022-12-14T22:42:12.666Z,96460.72
2022-12-14T22:47:15.428Z,96449.75
2022-12-14T22:52:24.361Z,96280.66
2022-12-14T22:57:28.671Z,96406.94
2022-12-14T23:02:31.991Z,96347.84
2022-12-14T23:07:35.269Z,96341.50
2022-12-14T23:12:56.716Z,96442.47
2022-12-14T23:18:26.180Z,96441.34
2022-12-14T23:23:47.360Z,96438.84
2022-12-14T23:29:08.991Z,96404.44
2022-12-14T23:34:30.112Z,96283.34
2022-12-14T23:39:51.182Z,96367.16
2022-12-14T23:45:13.030Z,96413.44
2022-12-14T23:50:34.935Z,96440.28
2022-12-14T23:55:56.139Z,96383.25
